createdAt,value
2023-02-15T00:00:10.072Z,30.10
2023-02-15T00:01:10.072Z,32.11
2023-02-15T00:02:09.170Z,29.82
2023-02-15T00:03:10.155Z,31.82
2023-02-15T00:04:10.055Z,31.12
2023-02-15T00:05:09.041Z,27.31
2023-02-15T00:06:10.035Z,29.87
2023-02-15T00:07:10.028Z,29.44
2023-02-15T00:08:10.028Z,31.34
2023-02-15T00:09:10.342Z,28.97
2023-02-15T00:10:10.024Z,28.42
2023-02-15T00:11:09.056Z,31.55
2023-02-15T00:12:08.989Z,28.54
2023-02-15T00:13:09.973Z,31.72
2023-02-15T00:14:09.976Z,29.55
2023-02-15T00:15:09.986Z,29.74
2023-02-15T00:16:08.997Z,30.76
2023-02-15T00:17:09.963Z,28.18
2023-02-15T00:18:09.942Z,31.28
2023-02-15T00:19:08.974Z,31.23
2023-02-15T00:20:09.923Z,31.21
2023-02-15T00:21:08.927Z,29.23
2023-02-15T00:22:08.917Z,28.33
2023-02-15T00:23:09.900Z,29.90
2023-02-15T00:24:09.930Z,28.29
2023-02-15T00:25:09.888Z,26.79
2023-02-15T00:26:08.897Z,31.99
2023-02-15T00:27:08.881Z,30.84
2023-02-15T00:28:08.862Z,29.03
2023-02-15T00:29:09.875Z,28.96
2023-02-15T00:30:09.922Z,32.40
2023-02-15T00:31:09.999Z,29.37
2023-02-15T00:32:09.857Z,29.17
2023-02-15T00:33:08.838Z,28.40
2023-02-15T00:34:09.845Z,30.47
2023-02-15T00:35:09.853Z,31.27
2023-02-15T00:36:09.816Z,28.14
2023-02-15T00:37:09.835Z,30.41
2023-02-15T00:38:09.817Z,29.32
2023-02-15T00:39:09.834Z,27.01
2023-02-15T00:40:09.826Z,30.28
2023-02-15T00:41:09.832Z,29.39
2023-02-15T00:42:08.838Z,27.88
2023-02-15T00:43:08.867Z,30.57
2023-02-15T00:44:09.864Z,30.83
2023-02-15T00:45:08.845Z,27.99
2023-02-15T00:46:09.931Z,30.37
2023-02-15T00:47:08.848Z,27.40
2023-02-15T00:48:09.846Z,29.11
2023-02-15T00:49:09.900Z,29.18
2023-02-15T00:50:09.864Z,29.66
2023-02-15T00:51:08.886Z,28.67
2023-02-15T00:52:09.878Z,29.49
2023-02-15T00:53:09.874Z,29.06
2023-02-15T00:54:08.878Z,28.95
2023-02-15T00:55:09.882Z,30.98
2023-02-15T00:56:09.880Z,27.70
2023-02-15T00:57:08.895Z,29.34
2023-02-15T00:58:08.912Z,26.60
2023-02-15T00:59:08.892Z,28.95
2023-02-15T01:00:09.891Z,28.93
2023-02-15T01:01:09.948Z,25.65
2023-02-15T01:02:09.908Z,26.06
2023-02-15T01:03:09.915Z,31.54
2023-02-15T01:04:09.993Z,27.98
2023-02-15T01:05:09.942Z,26.76
2023-02-15T01:06:08.955Z,29.17
2023-02-15T01:07:08.976Z,26.05
2023-02-15T01:08:09.974Z,28.30
2023-02-15T01:09:09.971Z,27.84
2023-02-15T01:10:09.987Z,27.71
2023-02-15T01:11:10.057Z,29.48
2023-02-15T01:12:08.996Z,28.43
2023-02-15T01:13:10.010Z,28.75
2023-02-15T01:14:10.013Z,26.29
2023-02-15T01:15:10.045Z,30.19
2023-02-15T01:16:10.100Z,27.58
2023-02-15T01:17:10.054Z,30.03
2023-02-15T01:18:09.046Z,28.96
2023-02-15T01:19:09.058Z,30.32
2023-02-15T01:20:10.066Z,27.94
2023-02-15T01:21:09.077Z,25.00
2023-02-15T01:22:10.075Z,31.53
2023-02-15T01:23:09.115Z,31.33
2023-02-15T01:24:09.087Z,29.48
2023-02-15T01:25:10.129Z,29.50
2023-02-15T01:26:10.112Z,29.78
2023-02-15T01:27:09.154Z,27.73
2023-02-15T01:28:09.151Z,28.58
2023-02-15T01:29:10.152Z,26.66
2023-02-15T01:30:10.277Z,29.59
2023-02-15T01:31:10.258Z,27.39
2023-02-15T01:32:10.337Z,27.55
2023-02-15T01:33:10.207Z,28.38
2023-02-15T01:34:10.208Z,26.95
2023-02-15T01:35:10.235Z,29.43
2023-02-15T01:36:09.275Z,28.04
2023-02-15T01:37:10.259Z,30.13
2023-02-15T01:38:10.273Z,28.21
2023-02-15T01:39:10.312Z,30.68
2023-02-15T01:40:10.311Z,29.91
2023-02-15T01:41:10.316Z,26.68
2023-02-15T01:42:10.337Z,28.64
2023-02-15T01:43:10.322Z,29.28
2023-02-15T01:44:10.333Z,25.08
2023-02-15T01:45:10.363Z,28.67
2023-02-15T01:46:09.465Z,28.96
2023-02-15T01:47:10.378Z,27.99
2023-02-15T01:48:10.386Z,29.32
2023-02-15T01:49:09.379Z,27.41
2023-02-15T01:50:10.412Z,29.05
2023-02-15T01:51:10.390Z,29.49
2023-02-15T01:52:10.400Z,29.84
2023-02-15T01:53:10.452Z,27.31
2023-02-15T01:54:10.470Z,32.51
2023-02-15T01:55:09.520Z,29.65
2023-02-15T01:56:09.445Z,31.92
2023-02-15T01:57:09.479Z,29.50
2023-02-15T01:58:09.479Z,28.02
2023-02-15T01:59:10.508Z,30.29
2023-02-15T02:00:10.541Z,26.71
2023-02-15T02:01:10.565Z,28.11
2023-02-15T02:02:09.547Z,30.27
2023-02-15T02:03:10.543Z,30.13
2023-02-15T02:04:10.580Z,28.63
2023-02-15T02:05:09.595Z,31.95
2023-02-15T02:06:09.613Z,31.55
2023-02-15T02:07:10.616Z,31.05
2023-02-15T02:08:10.648Z,30.11
2023-02-15T02:09:10.670Z,28.70
2023-02-15T02:10:10.672Z,29.30
2023-02-15T02:11:10.716Z,29.26
2023-02-15T02:12:10.691Z,30.83
2023-02-15T02:13:09.704Z,29.67
2023-02-15T02:14:10.738Z,29.48
2023-02-15T02:15:10.737Z,26.85
2023-02-15T02:16:09.792Z,32.45
2023-02-15T02:17:09.746Z,29.43
2023-02-15T02:18:09.765Z,29.29
2023-02-15T02:19:10.782Z,31.40
2023-02-15T02:20:10.790Z,28.96
2023-02-15T02:21:10.816Z,30.82
2023-02-15T02:22:10.811Z,29.19
2023-02-15T02:23:09.860Z,30.27
2023-02-15T02:24:10.856Z,27.99
2023-02-15T02:25:09.866Z,31.06
2023-02-15T02:26:10.888Z,30.17
2023-02-15T02:27:10.911Z,29.77
2023-02-15T02:28:09.907Z,27.48
2023-02-15T02:29:10.918Z,30.75
2023-02-15T02:30:10.996Z,29.11
2023-02-15T02:31:10.122Z,28.97
2023-02-15T02:32:10.958Z,30.35
2023-02-15T02:33:10.974Z,30.99
2023-02-15T02:34:10.987Z,34.22
2023-02-15T02:35:11.001Z,28.78
2023-02-15T02:36:11.021Z,28.72
2023-02-15T02:37:11.030Z,33.46
2023-02-15T02:38:10.039Z,32.20
2023-02-15T02:39:11.069Z,31.29
2023-02-15T02:40:11.071Z,30.01
2023-02-15T02:41:11.116Z,28.42
2023-02-15T02:42:11.103Z,31.43
2023-02-15T02:43:10.159Z,28.53
2023-02-15T02:44:11.154Z,33.13
2023-02-15T02:45:10.138Z,31.33
2023-02-15T02:46:11.223Z,31.28
2023-02-15T02:47:11.190Z,27.00
2023-02-15T02:48:11.192Z,30.14
2023-02-15T02:49:11.204Z,28.02
2023-02-15T02:50:11.242Z,30.02
2023-02-15T02:51:10.219Z,29.23
2023-02-15T02:52:11.229Z,29.05
2023-02-15T02:53:11.254Z,28.60
2023-02-15T02:54:11.267Z,28.99
2023-02-15T02:55:11.279Z,27.65
2023-02-15T02:56:10.279Z,28.42
2023-02-15T02:57:10.377Z,28.73
2023-02-15T02:58:10.323Z,30.44
2023-02-15T02:59:11.360Z,28.75
2023-02-15T03:00:10.399Z,28.84
2023-02-15T03:01:11.352Z,27.02
2023-02-15T03:02:11.377Z,33.14
2023-02-15T03:03:10.453Z,30.81
2023-02-15T03:04:11.422Z,29.26
2023-02-15T03:05:11.435Z,29.81
2023-02-15T03:06:11.449Z,31.11
2023-02-15T03:07:10.495Z,26.39
2023-02-15T03:08:11.483Z,31.76
2023-02-15T03:09:11.525Z,27.00
2023-02-15T03:10:10.535Z,29.30
2023-02-15T03:11:11.552Z,31.12
2023-02-15T03:12:11.559Z,29.07
2023-02-15T03:13:10.577Z,28.86
2023-02-15T03:14:11.610Z,29.76
2023-02-15T03:15:10.639Z,30.45
2023-02-15T03:16:10.780Z,29.37
2023-02-15T03:17:11.676Z,30.83
2023-02-15T03:18:11.692Z,29.43
2023-02-15T03:19:10.721Z,29.76
2023-02-15T03:20:11.738Z,34.72
2023-02-15T03:21:11.754Z,28.77
2023-02-15T03:22:11.767Z,25.00
2023-02-15T03:23:11.804Z,27.56
2023-02-15T03:24:11.815Z,30.97
2023-02-15T03:25:11.846Z,31.03
2023-02-15T03:26:11.854Z,28.23
2023-02-15T03:27:11.879Z,28.06
2023-02-15T03:28:11.891Z,29.50
2023-02-15T03:29:11.941Z,31.13
2023-02-15T03:30:11.015Z,30.48
2023-02-15T03:31:12.138Z,31.35
2023-02-15T03:32:12.072Z,29.47
2023-02-15T03:33:12.001Z,30.10
2023-02-15T03:34:12.012Z,32.50
2023-02-15T03:35:11.058Z,30.31
2023-02-15T03:36:12.099Z,27.10
2023-02-15T03:37:12.107Z,29.33
2023-02-15T03:38:12.118Z,29.53
2023-02-15T03:39:12.140Z,30.33
2023-02-15T03:40:11.169Z,29.62
2023-02-15T03:41:12.180Z,29.45
2023-02-15T03:42:12.217Z,28.13
2023-02-15T03:43:11.221Z,29.19
2023-02-15T03:44:12.243Z,33.43
2023-02-15T03:45:11.269Z,30.45
2023-02-15T03:46:12.334Z,29.22
2023-02-15T03:47:11.353Z,30.43
2023-02-15T03:48:11.354Z,29.99
2023-02-15T03:49:12.428Z,30.22
2023-02-15T03:50:12.405Z,27.30
2023-02-15T03:51:12.424Z,30.75
2023-02-15T03:52:12.480Z,30.43
2023-02-15T03:53:12.482Z,29.72
2023-02-15T03:54:12.543Z,30.28
2023-02-15T03:55:11.518Z,29.00
2023-02-15T03:56:11.549Z,28.83
2023-02-15T03:57:12.573Z,28.90
2023-02-15T03:58:12.594Z,30.40
2023-02-15T03:59:12.606Z,29.45
2023-02-15T04:00:12.629Z,28.66
2023-02-15T04:01:11.766Z,28.75
2023-02-15T04:02:12.691Z,30.69
2023-02-15T04:03:12.780Z,29.86
2023-02-15T04:04:11.726Z,29.73
2023-02-15T04:05:12.751Z,26.75
2023-02-15T04:06:12.785Z,29.53
2023-02-15T04:07:12.816Z,31.10
2023-02-15T04:08:12.838Z,31.21
2023-02-15T04:09:12.853Z,31.19
2023-02-15T04:10:12.882Z,32.79
2023-02-15T04:11:11.912Z,27.70
2023-02-15T04:12:12.935Z,29.82
2023-02-15T04:13:11.947Z,28.85
2023-02-15T04:14:12.980Z,30.16
2023-02-15T04:15:13.013Z,30.56
2023-02-15T04:16:13.162Z,29.53
2023-02-15T04:17:12.081Z,26.52
2023-02-15T04:18:13.091Z,30.91
2023-02-15T04:19:13.142Z,32.02
2023-02-15T04:20:13.145Z,30.68
2023-02-15T04:21:12.183Z,33.53
2023-02-15T04:22:13.198Z,27.61
2023-02-15T04:23:13.214Z,30.40
2023-02-15T04:24:12.253Z,27.61
2023-02-15T04:25:12.276Z,30.60
2023-02-15T04:26:12.314Z,28.81
2023-02-15T04:27:12.318Z,27.79
2023-02-15T04:28:13.353Z,31.28
2023-02-15T04:29:13.372Z,31.87
2023-02-15T04:30:13.464Z,28.55
2023-02-15T04:31:13.578Z,28.70
2023-02-15T04:32:13.560Z,27.40
2023-02-15T04:33:12.509Z,30.54
2023-02-15T04:34:12.516Z,30.27
2023-02-15T04:35:13.577Z,27.10
2023-02-15T04:36:12.570Z,30.60
2023-02-15T04:37:13.607Z,26.78
2023-02-15T04:38:13.635Z,27.38
2023-02-15T04:39:12.653Z,30.23
2023-02-15T04:40:13.689Z,28.39
2023-02-15T04:41:13.710Z,31.50
2023-02-15T04:42:12.953Z,34.24
2023-02-15T04:43:12.754Z,30.97
2023-02-15T04:44:13.794Z,27.38
2023-02-15T04:45:12.815Z,28.25
2023-02-15T04:46:13.896Z,31.27
2023-02-15T04:47:12.865Z,31.14
2023-02-15T04:48:13.882Z,29.10
2023-02-15T04:49:12.920Z,31.67
2023-02-15T04:50:13.941Z,30.11
2023-02-15T04:51:13.987Z,27.15
2023-02-15T04:52:14.013Z,31.12
2023-02-15T04:53:14.032Z,27.34
2023-02-15T04:54:14.056Z,30.95
2023-02-15T04:55:14.091Z,28.92
2023-02-15T04:56:14.113Z,31.60
2023-02-15T04:57:13.135Z,29.43
2023-02-15T04:58:13.175Z,31.62
2023-02-15T04:59:14.180Z,28.82
2023-02-15T05:00:14.218Z,28.42
2023-02-15T05:01:14.289Z,29.06
2023-02-15T05:02:13.286Z,29.65
2023-02-15T05:03:14.296Z,28.47
2023-02-15T05:04:13.390Z,27.03
2023-02-15T05:05:14.366Z,29.02
2023-02-15T05:06:13.378Z,31.30
2023-02-15T05:07:13.440Z,29.76
2023-02-15T05:08:14.434Z,28.10
2023-02-15T05:09:14.465Z,28.93
2023-02-15T05:10:14.504Z,32.01
2023-02-15T05:11:13.534Z,25.00
2023-02-15T05:12:13.545Z,29.02
2023-02-15T05:13:14.578Z,27.05
2023-02-15T05:14:13.609Z,31.58
2023-02-15T05:15:13.650Z,29.15
2023-02-15T05:16:13.681Z,31.10
2023-02-15T05:17:13.693Z,30.60
2023-02-15T05:18:13.733Z,29.38
2023-02-15T05:19:14.758Z,28.34
2023-02-15T05:20:14.781Z,31.07
2023-02-15T05:21:14.817Z,30.51
2023-02-15T05:22:14.825Z,30.46
2023-02-15T05:23:14.896Z,31.59
2023-02-15T05:24:13.890Z,29.32
2023-02-15T05:25:14.918Z,28.11
2023-02-15T05:26:14.967Z,32.87
2023-02-15T05:27:14.981Z,30.95
2023-02-15T05:28:14.004Z,30.48
2023-02-15T05:29:14.035Z,27.86
2023-02-15T05:30:15.212Z,31.24
2023-02-15T05:31:15.403Z,26.65
2023-02-15T05:32:15.333Z,29.93
2023-02-15T05:33:15.164Z,30.21
2023-02-15T05:34:15.190Z,29.22
2023-02-15T05:35:14.236Z,29.77
2023-02-15T05:36:15.247Z,30.06
2023-02-15T05:37:15.285Z,31.28
2023-02-15T05:38:15.327Z,31.00
2023-02-15T05:39:14.369Z,28.74
2023-02-15T05:40:14.386Z,28.79
2023-02-15T05:41:15.413Z,29.52
2023-02-15T05:42:15.441Z,29.29
2023-02-15T05:43:15.484Z,29.48
2023-02-15T05:44:14.481Z,28.73
2023-02-15T05:45:15.514Z,28.56
2023-02-15T05:46:14.648Z,29.62
2023-02-15T05:47:15.570Z,32.40
2023-02-15T05:48:15.642Z,29.14
2023-02-15T05:49:15.635Z,31.46
2023-02-15T05:50:15.655Z,30.24
2023-02-15T05:51:15.681Z,27.62
2023-02-15T05:52:14.708Z,28.83
2023-02-15T05:53:14.754Z,27.41
2023-02-15T05:54:15.786Z,30.38
2023-02-15T05:55:14.845Z,25.45
2023-02-15T05:56:15.848Z,30.82
2023-02-15T05:57:15.877Z,30.70
2023-02-15T05:58:15.896Z,33.91
2023-02-15T05:59:14.933Z,31.93
2023-02-15T06:00:15.969Z,30.22
2023-02-15T06:01:14.994Z,28.99
2023-02-15T06:02:15.090Z,28.64
2023-02-15T06:03:15.108Z,27.58
2023-02-15T06:04:16.095Z,31.26
2023-02-15T06:05:15.134Z,28.99
2023-02-15T06:06:15.141Z,31.52
2023-02-15T06:07:16.183Z,29.91
2023-02-15T06:08:15.203Z,30.88
2023-02-15T06:09:16.276Z,30.98
2023-02-15T06:10:15.269Z,33.38
2023-02-15T06:11:16.330Z,30.16
2023-02-15T06:12:16.335Z,29.15
2023-02-15T06:13:15.388Z,29.60
2023-02-15T06:14:16.409Z,32.85
2023-02-15T06:15:16.476Z,31.41
2023-02-15T06:16:15.507Z,30.43
2023-02-15T06:17:15.493Z,29.84
2023-02-15T06:18:16.518Z,31.35
2023-02-15T06:19:16.547Z,29.17
2023-02-15T06:20:16.576Z,31.62
2023-02-15T06:21:15.599Z,32.40
2023-02-15T06:22:16.630Z,30.94
2023-02-15T06:23:16.661Z,30.96
2023-02-15T06:24:16.681Z,26.41
2023-02-15T06:25:16.702Z,28.49
2023-02-15T06:26:16.735Z,32.34
2023-02-15T06:27:16.801Z,29.58
2023-02-15T06:28:16.806Z,27.31
2023-02-15T06:29:15.838Z,31.11
2023-02-15T06:30:16.960Z,29.88
2023-02-15T06:31:17.012Z,31.12
2023-02-15T06:32:15.922Z,28.63
2023-02-15T06:33:15.957Z,32.42
2023-02-15T06:34:16.003Z,32.29
2023-02-15T06:35:17.002Z,33.19
2023-02-15T06:36:17.050Z,31.50
2023-02-15T06:37:17.077Z,30.41
2023-02-15T06:38:17.124Z,31.32
2023-02-15T06:39:16.157Z,30.06
2023-02-15T06:40:17.194Z,32.88
2023-02-15T06:41:17.194Z,29.93
2023-02-15T06:42:17.227Z,27.13
2023-02-15T06:43:16.268Z,30.75
2023-02-15T06:44:17.326Z,26.97
2023-02-15T06:45:17.322Z,33.11
2023-02-15T06:46:17.441Z,29.49
2023-02-15T06:47:17.370Z,29.28
2023-02-15T06:48:17.412Z,30.92
2023-02-15T06:49:17.449Z,30.55
2023-02-15T06:50:16.460Z,32.30
2023-02-15T06:51:17.485Z,30.75
2023-02-15T06:52:17.518Z,29.96
2023-02-15T06:53:17.572Z,28.32
2023-02-15T06:54:17.958Z,29.98
2023-02-15T06:55:17.638Z,31.04
2023-02-15T06:56:16.668Z,31.55
2023-02-15T06:57:17.852Z,30.16
2023-02-15T06:58:17.732Z,28.64
2023-02-15T06:59:17.789Z,30.55
2023-02-15T07:00:16.811Z,33.17
2023-02-15T07:01:17.856Z,30.36
2023-02-15T07:02:17.854Z,29.41
2023-02-15T07:03:17.911Z,29.07
2023-02-15T07:04:16.915Z,31.28
2023-02-15T07:05:16.959Z,34.60
2023-02-15T07:06:17.968Z,32.45
2023-02-15T07:07:17.012Z,31.66
2023-02-15T07:08:17.080Z,31.23
2023-02-15T07:09:17.106Z,32.98
2023-02-15T07:10:18.122Z,31.56
2023-02-15T07:11:18.141Z,31.02
2023-02-15T07:12:18.162Z,31.17
2023-02-15T07:13:18.215Z,30.66
2023-02-15T07:14:18.235Z,31.30
2023-02-15T07:15:18.294Z,32.04
2023-02-15T07:16:18.340Z,30.86
2023-02-15T07:17:35.033Z,27.72
2023-02-15T07:18:18.313Z,28.01
2023-02-15T07:19:18.306Z,28.20
2023-02-15T07:20:18.332Z,29.39
2023-02-15T07:21:18.297Z,29.19
2023-02-15T07:22:18.279Z,30.12
2023-02-15T07:23:17.281Z,28.61
2023-02-15T07:24:17.272Z,28.38
2023-02-15T07:25:18.349Z,28.88
2023-02-15T07:26:18.324Z,34.72
2023-02-15T07:27:18.246Z,27.68
2023-02-15T07:28:17.244Z,31.66
2023-02-15T07:29:18.231Z,30.65
2023-02-15T07:30:18.398Z,31.89
2023-02-15T07:31:17.369Z,31.38
2023-02-15T07:32:18.289Z,31.65
2023-02-15T07:33:17.223Z,33.91
2023-02-15T07:34:18.202Z,29.60
2023-02-15T07:35:18.258Z,28.24
2023-02-15T07:36:18.263Z,33.82
2023-02-15T07:37:17.294Z,31.01
2023-02-15T07:38:18.322Z,32.87
2023-02-15T07:39:18.362Z,32.70
2023-02-15T07:40:18.402Z,32.93
2023-02-15T07:41:18.430Z,34.50
2023-02-15T07:42:17.444Z,29.28
2023-02-15T07:43:18.485Z,30.68
2023-02-15T07:44:18.512Z,33.99
2023-02-15T07:45:18.542Z,33.03
2023-02-15T07:46:18.610Z,30.81
2023-02-15T07:47:18.631Z,34.66
2023-02-15T07:48:17.620Z,30.46
2023-02-15T07:49:18.660Z,33.64
2023-02-15T07:50:18.685Z,30.36
2023-02-15T07:51:18.740Z,33.51
2023-02-15T07:52:17.753Z,30.87
2023-02-15T07:53:18.779Z,34.00
2023-02-15T07:54:17.806Z,32.55
2023-02-15T07:55:18.852Z,31.25
2023-02-15T07:56:18.865Z,28.06
2023-02-15T07:57:18.911Z,32.66
2023-02-15T07:58:18.928Z,29.61
2023-02-15T07:59:18.964Z,35.64
2023-02-15T08:00:19.013Z,34.79
2023-02-15T08:01:18.030Z,31.82
2023-02-15T08:02:19.057Z,32.84
2023-02-15T08:03:18.275Z,36.00
2023-02-15T08:04:18.111Z,33.64
2023-02-15T08:05:18.151Z,34.44
2023-02-15T08:06:19.174Z,31.67
2023-02-15T08:07:18.191Z,32.83
2023-02-15T08:08:19.229Z,33.11
2023-02-15T08:09:19.243Z,31.87
2023-02-15T08:10:18.273Z,32.69
2023-02-15T08:11:19.305Z,33.62
2023-02-15T08:12:18.321Z,32.14
2023-02-15T08:13:19.359Z,33.97
2023-02-15T08:14:18.382Z,35.14
2023-02-15T08:15:19.465Z,35.17
2023-02-15T08:16:19.502Z,32.30
2023-02-15T08:17:18.448Z,33.44
2023-02-15T08:18:19.477Z,37.59
2023-02-15T08:19:19.526Z,33.94
2023-02-15T08:20:18.520Z,38.11
2023-02-15T08:21:19.539Z,35.96
2023-02-15T08:22:18.575Z,33.00
2023-02-15T08:23:19.606Z,34.26
2023-02-15T08:24:19.596Z,33.53
2023-02-15T08:25:18.628Z,34.72
2023-02-15T08:26:18.630Z,36.17
2023-02-15T08:27:18.654Z,37.52
2023-02-15T08:28:19.694Z,35.63
2023-02-15T08:29:19.705Z,34.34
2023-02-15T08:30:19.834Z,37.77
2023-02-15T08:31:19.939Z,34.68
2023-02-15T08:32:18.780Z,40.45
2023-02-15T08:33:18.760Z,36.62
2023-02-15T08:34:19.788Z,36.48
2023-02-15T08:35:19.850Z,39.51
2023-02-15T08:36:19.827Z,38.63
2023-02-15T08:37:19.825Z,37.09
2023-02-15T08:38:19.841Z,37.13
2023-02-15T08:39:18.869Z,36.10
2023-02-15T08:40:18.890Z,37.18
2023-02-15T08:41:19.899Z,36.64
2023-02-15T08:42:18.910Z,36.58
2023-02-15T08:43:19.908Z,38.32
2023-02-15T08:44:18.913Z,34.99
2023-02-15T08:45:19.939Z,37.51
2023-02-15T08:46:19.955Z,40.37
2023-02-15T08:47:19.942Z,38.49
2023-02-15T08:48:18.937Z,37.83
2023-02-15T08:49:18.961Z,40.95
2023-02-15T08:50:19.949Z,37.96
2023-02-15T08:51:20.055Z,40.78
2023-02-15T08:52:19.962Z,40.83
2023-02-15T08:53:19.976Z,38.40
2023-02-15T08:54:20.042Z,38.51
2023-02-15T08:55:19.985Z,38.14
2023-02-15T08:56:19.986Z,41.52
2023-02-15T08:57:19.980Z,39.22
2023-02-15T08:58:18.991Z,39.42
2023-02-15T08:59:19.986Z,40.79
2023-02-15T09:00:18.988Z,41.21
2023-02-15T09:01:20.036Z,40.28
2023-02-15T09:02:20.030Z,39.18
2023-02-15T09:03:18.985Z,43.69
2023-02-15T09:04:19.002Z,41.42
2023-02-15T09:05:19.996Z,41.74
2023-02-15T09:06:19.997Z,44.67
2023-02-15T09:07:19.012Z,41.86
2023-02-15T09:08:19.988Z,43.72
2023-02-15T09:09:18.986Z,42.95
2023-02-15T09:10:19.968Z,41.66
2023-02-15T09:11:19.971Z,41.98
2023-02-15T09:12:19.972Z,45.08
2023-02-15T09:13:19.974Z,42.86
2023-02-15T09:14:19.960Z,41.08
2023-02-15T09:15:18.959Z,41.62
2023-02-15T09:16:19.503Z,42.98
2023-02-15T09:17:19.963Z,42.29
2023-02-15T09:18:19.999Z,43.00
2023-02-15T09:19:19.958Z,46.33
2023-02-15T09:20:19.979Z,45.69
2023-02-15T09:21:18.976Z,45.42
2023-02-15T09:22:19.944Z,45.81
2023-02-15T09:23:26.779Z,43.37
2023-02-15T09:24:19.947Z,43.71
2023-02-15T09:25:18.932Z,43.99
2023-02-15T09:26:18.950Z,45.03
2023-02-15T09:27:18.934Z,46.92
2023-02-15T09:28:18.905Z,44.49
2023-02-15T09:29:19.920Z,48.31
2023-02-15T09:30:18.937Z,49.75
2023-02-15T09:31:20.081Z,47.20
2023-02-15T09:32:18.945Z,46.65
2023-02-15T09:33:18.870Z,47.51
2023-02-15T09:34:19.920Z,47.66
2023-02-15T09:35:18.861Z,47.84
2023-02-15T09:36:18.867Z,46.64
2023-02-15T09:37:19.870Z,46.60
2023-02-15T09:38:19.851Z,49.90
2023-02-15T09:39:19.878Z,48.20
2023-02-15T09:40:19.833Z,47.51
2023-02-15T09:41:18.842Z,49.17
2023-02-15T09:42:18.826Z,46.81
2023-02-15T09:43:19.813Z,48.35
2023-02-15T09:44:18.802Z,48.58
2023-02-15T09:45:19.799Z,48.17
2023-02-15T09:46:18.895Z,47.93
2023-02-15T09:47:18.810Z,45.00
2023-02-15T09:48:18.780Z,46.92
2023-02-15T09:49:19.786Z,49.03
2023-02-15T09:50:19.789Z,50.22
2023-02-15T09:51:18.766Z,48.07
2023-02-15T09:52:18.761Z,47.61
2023-02-15T09:53:19.756Z,48.79
2023-02-15T09:54:19.757Z,49.57
2023-02-15T09:55:18.847Z,48.14
2023-02-15T09:56:20.757Z,47.50
2023-02-15T09:57:18.920Z,49.93
2023-02-15T09:58:19.000Z,46.16
2023-02-15T09:59:20.056Z,50.53
2023-02-15T10:00:20.142Z,49.60
2023-02-15T10:01:19.221Z,49.06
2023-02-15T10:02:19.249Z,51.06
2023-02-15T10:03:20.299Z,50.80
2023-02-15T10:04:20.458Z,53.15
2023-02-15T10:05:19.424Z,47.13
2023-02-15T10:06:19.498Z,48.94
2023-02-15T10:07:20.568Z,50.14
2023-02-15T10:08:20.609Z,52.15
2023-02-15T10:09:20.670Z,48.60
2023-02-15T10:10:20.715Z,49.46
2023-02-15T10:11:19.810Z,53.53
2023-02-15T10:12:19.842Z,50.93
2023-02-15T10:13:20.897Z,51.16
2023-02-15T10:14:20.942Z,50.49
2023-02-15T10:15:21.031Z,50.07
2023-02-15T10:16:21.077Z,51.71
2023-02-15T10:17:21.123Z,48.58
2023-02-15T10:18:21.180Z,51.21
2023-02-15T10:19:21.235Z,50.86
2023-02-15T10:20:21.372Z,49.44
2023-02-15T10:21:21.423Z,49.15
2023-02-15T10:22:21.402Z,47.37
2023-02-15T10:23:20.486Z,47.46
2023-02-15T10:24:21.526Z,50.27
2023-02-15T10:25:21.572Z,50.75
2023-02-15T10:26:21.689Z,50.02
2023-02-15T10:27:21.681Z,46.08
2023-02-15T10:28:21.746Z,45.23
2023-02-15T10:29:20.776Z,47.33
2023-02-15T10:30:21.977Z,46.28
2023-02-15T10:31:22.088Z,47.47
2023-02-15T10:32:21.008Z,47.66
2023-02-15T10:33:21.986Z,45.09
2023-02-15T10:34:22.037Z,48.37
2023-02-15T10:35:21.090Z,46.90
2023-02-15T10:36:21.144Z,43.92
2023-02-15T10:37:21.210Z,45.72
2023-02-15T10:38:22.262Z,46.09
2023-02-15T10:39:22.311Z,42.45
2023-02-15T10:40:22.351Z,45.14
2023-02-15T10:41:22.409Z,45.80
2023-02-15T10:42:21.516Z,47.69
2023-02-15T10:43:21.625Z,44.91
2023-02-15T10:44:21.579Z,44.10
2023-02-15T10:45:22.634Z,41.90
2023-02-15T10:46:21.800Z,46.03
2023-02-15T10:47:21.731Z,42.15
2023-02-15T10:48:22.827Z,47.07
2023-02-15T10:49:22.833Z,41.99
2023-02-15T10:50:21.887Z,44.35
2023-02-15T10:51:22.922Z,45.11
2023-02-15T10:52:24.360Z,42.37
2023-02-15T10:53:22.090Z,44.53
2023-02-15T10:54:23.127Z,45.72
2023-02-15T10:55:22.169Z,41.02
2023-02-15T10:56:23.213Z,44.96
2023-02-15T10:57:23.268Z,42.77
2023-02-15T10:58:22.372Z,44.16
2023-02-15T10:59:22.371Z,43.92
2023-02-15T11:00:23.405Z,42.30
2023-02-15T11:01:22.545Z,44.75
2023-02-15T11:02:22.478Z,40.92
2023-02-15T11:03:23.518Z,43.64
2023-02-15T11:04:22.572Z,45.24
2023-02-15T11:05:23.686Z,41.79
2023-02-15T11:06:22.639Z,44.27
2023-02-15T11:07:23.673Z,42.80
2023-02-15T11:08:23.729Z,42.58
2023-02-15T11:09:23.760Z,45.02
2023-02-15T11:10:23.795Z,43.44
2023-02-15T11:11:23.837Z,41.32
2023-02-15T11:12:23.887Z,41.84
2023-02-15T11:13:22.915Z,40.32
2023-02-15T11:14:23.987Z,41.37
2023-02-15T11:15:22.995Z,42.03
2023-02-15T11:16:23.080Z,40.03
2023-02-15T11:17:23.056Z,42.17
2023-02-15T11:18:24.095Z,44.16
2023-02-15T11:19:24.149Z,41.67
2023-02-15T11:20:24.175Z,42.53
2023-02-15T11:21:23.225Z,43.29
2023-02-15T11:22:24.243Z,41.45
2023-02-15T11:23:24.271Z,39.85
2023-02-15T11:24:23.327Z,42.40
2023-02-15T11:25:24.346Z,41.08
2023-02-15T11:26:24.394Z,41.19
2023-02-15T11:27:24.505Z,40.71
2023-02-15T11:28:24.443Z,41.75
2023-02-15T11:29:24.543Z,41.99
2023-02-15T11:30:23.719Z,40.96
2023-02-15T11:31:24.674Z,42.54
2023-02-15T11:32:24.628Z,43.59
2023-02-15T11:33:23.648Z,40.90
2023-02-15T11:34:24.676Z,41.60
2023-02-15T11:35:24.702Z,40.43
2023-02-15T11:36:24.754Z,41.58
2023-02-15T11:37:23.776Z,39.60
2023-02-15T11:38:24.834Z,38.75
2023-02-15T11:39:24.880Z,39.99
2023-02-15T11:40:24.053Z,40.12
2023-02-15T11:41:24.166Z,39.51
2023-02-15T11:42:25.113Z,38.65
2023-02-15T11:43:24.021Z,39.50
2023-02-15T11:44:24.277Z,39.78
2023-02-15T11:45:24.204Z,39.45
2023-02-15T11:46:25.473Z,39.62
2023-02-15T11:47:25.261Z,40.29
2023-02-15T11:48:25.520Z,41.40
2023-02-15T11:49:26.314Z,39.19
2023-02-15T11:50:25.605Z,40.14
2023-02-15T11:51:25.406Z,40.66
2023-02-15T11:52:25.597Z,40.72
2023-02-15T11:53:25.602Z,39.26
2023-02-15T11:54:25.639Z,37.07
2023-02-15T11:55:25.537Z,40.25
2023-02-15T11:56:24.574Z,40.60
2023-02-15T11:57:24.616Z,38.02
2023-02-15T11:58:25.695Z,39.49
2023-02-15T11:59:25.716Z,40.57
2023-02-15T12:00:25.686Z,41.40
2023-02-15T12:01:25.724Z,37.46
2023-02-15T12:02:25.845Z,38.37
2023-02-15T12:03:25.775Z,39.78
2023-02-15T12:04:25.806Z,39.61
2023-02-15T12:05:25.869Z,38.95
2023-02-15T12:06:24.875Z,38.28
2023-02-15T12:07:25.899Z,38.91
2023-02-15T12:08:25.916Z,35.35
2023-02-15T12:09:25.942Z,34.81
2023-02-15T12:10:25.984Z,37.33
2023-02-15T12:11:25.008Z,38.33
2023-02-15T12:12:26.021Z,37.96
2023-02-15T12:13:25.054Z,37.91
2023-02-15T12:14:25.081Z,36.84
2023-02-15T12:15:26.108Z,38.39
2023-02-15T12:16:26.288Z,38.31
2023-02-15T12:17:26.168Z,38.50
2023-02-15T12:18:26.319Z,36.79
2023-02-15T12:19:26.209Z,36.03
2023-02-15T12:20:26.248Z,34.66
2023-02-15T12:21:27.720Z,37.18
2023-02-15T12:22:26.304Z,36.61
2023-02-15T12:23:26.315Z,37.23
2023-02-15T12:24:26.332Z,38.49
2023-02-15T12:25:26.376Z,37.03
2023-02-15T12:26:25.380Z,35.05
2023-02-15T12:27:26.422Z,37.27
2023-02-15T12:28:26.443Z,34.99
2023-02-15T12:29:26.466Z,34.48
2023-02-15T12:30:26.553Z,36.10
2023-02-15T12:31:25.606Z,38.51
2023-02-15T12:32:26.629Z,36.45
2023-02-15T12:33:26.575Z,35.25
2023-02-15T12:34:26.728Z,36.70
2023-02-15T12:35:26.628Z,38.39
2023-02-15T12:36:26.644Z,35.81
2023-02-15T12:37:26.685Z,35.52
2023-02-15T12:38:25.692Z,35.49
2023-02-15T12:39:26.740Z,34.29
2023-02-15T12:40:26.760Z,34.98
2023-02-15T12:41:26.823Z,36.58
2023-02-15T12:42:26.800Z,34.34
2023-02-15T12:43:26.832Z,35.89
2023-02-15T12:44:26.861Z,35.69
2023-02-15T12:45:25.923Z,37.28
2023-02-15T12:46:25.924Z,33.74
2023-02-15T12:47:29.626Z,36.54
2023-02-15T12:48:25.926Z,36.65
2023-02-15T12:49:25.919Z,36.32
2023-02-15T12:50:27.063Z,36.40
2023-02-15T12:51:27.179Z,36.28
2023-02-15T12:52:25.954Z,35.91